Terminal Aerodrome Forecast
Issued by NWS

Current Version | Previous Version | Text Only | Print | Product List | Glossary On
Versions: 1 2 3 4 5 6 7 8 9 10 11 12 13 14 15 16 17 18 19 20 21 22 23 24 25 26 27 28 29
009
FTUS41 KPBZ 191136
TAFLBE
TAF
KLBE 191136Z 1912/2012 22004KT P6SM OVC012
     FM191700 24004KT P6SM OVC025
     FM191900 24004KT P6SM OVC035
     FM192300 00000KT P6SM SCT250
     FM201000 13009KT P6SM OVC080=

USA.gov is the U.S. government's official web portal to all federal, state and local government web resources and services.